createdAt,value
2018-07-03T00:00:33.385Z,100.00
2018-07-03T00:02:00.877Z,100.00
2018-07-03T00:03:24.340Z,100.00
2018-07-03T00:04:51.881Z,100.00
2018-07-03T00:06:19.316Z,100.00
2018-07-03T00:07:50.917Z,100.00
2018-07-03T00:09:18.286Z,100.00
2018-07-03T00:10:45.725Z,100.00
2018-07-03T00:12:12.812Z,100.00
2018-07-03T00:13:40.235Z,100.00
2018-07-03T00:15:07.707Z,100.00
2018-07-03T00:16:30.873Z,100.00
2018-07-03T00:17:58.301Z,100.00
2018-07-03T00:19:29.841Z,100.00
2018-07-03T00:20:53.014Z,100.00
2018-07-03T00:22:20.535Z,100.00
2018-07-03T00:23:47.795Z,100.00
2018-07-03T00:25:15.415Z,100.00
2018-07-03T00:26:42.638Z,100.00
2018-07-03T00:28:10.058Z,100.00
2018-07-03T00:29:41.501Z,100.00
2018-07-03T00:31:08.736Z,100.00
2018-07-03T00:32:32.051Z,100.00
2018-07-03T00:34:03.623Z,100.00
2018-07-03T00:35:26.966Z,100.00
2018-07-03T00:36:54.410Z,100.00
2018-07-03T00:38:21.759Z,100.00
2018-07-03T00:39:49.097Z,100.00
2018-07-03T00:41:20.681Z,100.00
2018-07-03T00:42:44.091Z,100.00
2018-07-03T00:44:11.646Z,100.00
2018-07-03T00:45:43.136Z,100.00
2018-07-03T00:47:10.613Z,100.00
2018-07-03T00:48:38.055Z,100.00
2018-07-03T00:50:05.678Z,100.00
2018-07-03T00:51:29.023Z,100.00
2018-07-03T00:52:56.532Z,100.00
2018-07-03T00:54:24.102Z,100.00
2018-07-03T00:55:55.612Z,100.00
2018-07-03T00:57:23.163Z,100.00
2018-07-03T00:58:46.552Z,100.00
2018-07-03T01:00:18.025Z,100.00
2018-07-03T01:01:41.440Z,100.00
2018-07-03T01:03:09.238Z,100.00
2018-07-03T01:04:36.642Z,100.00
2018-07-03T01:06:04.009Z,100.00
2018-07-03T01:07:31.478Z,100.00
2018-07-03T01:09:02.980Z,100.00
2018-07-03T01:10:26.387Z,100.00
2018-07-03T01:11:53.654Z,100.00
2018-07-03T01:13:21.164Z,100.00
2018-07-03T01:14:52.525Z,100.00
2018-07-03T01:16:15.886Z,100.00
2018-07-03T01:17:47.312Z,100.00
2018-07-03T01:19:10.725Z,100.00
2018-07-03T01:20:38.121Z,100.00
2018-07-03T01:22:05.683Z,100.00
2018-07-03T01:23:33.230Z,100.00
2018-07-03T01:25:04.616Z,100.00
2018-07-03T01:26:28.043Z,100.00
2018-07-03T01:27:55.642Z,100.00
2018-07-03T01:29:22.893Z,100.00
2018-07-03T01:30:54.092Z,100.00
2018-07-03T01:32:21.370Z,100.00
2018-07-03T01:33:44.767Z,100.00
2018-07-03T01:35:11.932Z,100.00
2018-07-03T01:36:39.127Z,100.00
2018-07-03T01:38:10.348Z,100.00
2018-07-03T01:39:33.682Z,100.00
2018-07-03T01:41:05.146Z,100.00
2018-07-03T01:42:28.721Z,100.00
2018-07-03T01:43:56.233Z,100.00
2018-07-03T01:45:23.448Z,100.00
2018-07-03T01:46:50.814Z,100.00
2018-07-03T01:48:18.096Z,100.00
2018-07-03T01:49:45.553Z,100.00
2018-07-03T01:51:13.224Z,100.00
2018-07-03T01:52:40.685Z,100.00
2018-07-03T01:54:08.040Z,100.00
2018-07-03T01:55:39.335Z,100.00
2018-07-03T01:57:02.846Z,100.00
2018-07-03T01:58:30.422Z,100.00
2018-07-03T02:00:01.932Z,100.00
2018-07-03T02:01:29.340Z,100.00
2018-07-03T02:02:56.690Z,100.00
2018-07-03T02:04:20.066Z,100.00
2018-07-03T02:05:47.569Z,100.00
2018-07-03T02:07:14.837Z,100.00
2018-07-03T02:08:42.135Z,100.00
2018-07-03T02:10:09.439Z,100.00
2018-07-03T02:11:37.087Z,100.00
2018-07-03T02:13:04.531Z,100.00
2018-07-03T02:14:36.007Z,100.00
2018-07-03T02:15:59.426Z,100.00
2018-07-03T02:17:30.664Z,100.00
2018-07-03T02:18:58.017Z,100.00
2018-07-03T02:20:21.532Z,100.00
2018-07-03T02:21:48.922Z,100.00
2018-07-03T02:23:20.167Z,100.00
2018-07-03T02:24:43.687Z,100.00
2018-07-03T02:26:15.014Z,100.00
2018-07-03T02:27:38.389Z,100.00
2018-07-03T02:29:09.587Z,100.00
2018-07-03T02:30:36.943Z,100.00
2018-07-03T02:32:04.323Z,100.00
2018-07-03T02:33:27.722Z,100.00
2018-07-03T02:34:55.263Z,100.00
2018-07-03T02:36:26.824Z,100.00
2018-07-03T02:37:53.963Z,100.00
2018-07-03T02:39:21.456Z,100.00
2018-07-03T02:40:44.692Z,100.00
2018-07-03T02:42:11.968Z,100.00
2018-07-03T02:43:39.107Z,100.00
2018-07-03T02:45:06.578Z,100.00
2018-07-03T02:46:33.931Z,100.00
2018-07-03T02:48:05.640Z,100.00
2018-07-03T02:49:29.070Z,100.00
2018-07-03T02:50:56.399Z,100.00
2018-07-03T02:52:23.747Z,100.00
2018-07-03T02:53:55.223Z,100.00
2018-07-03T02:55:22.502Z,100.00
2018-07-03T02:56:49.795Z,100.00
2018-07-03T02:58:13.122Z,100.00
2018-07-03T02:59:40.392Z,100.00
2018-07-03T03:01:11.936Z,100.00
2018-07-03T03:02:39.236Z,100.00
2018-07-03T03:04:02.443Z,100.00
2018-07-03T03:05:33.844Z,100.00
2018-07-03T03:06:57.341Z,100.00
2018-07-03T03:08:29.025Z,100.00
2018-07-03T03:09:56.425Z,100.00
2018-07-03T03:11:19.707Z,100.00
2018-07-03T03:12:51.212Z,100.00
2018-07-03T03:14:18.586Z,100.00
2018-07-03T03:15:45.988Z,100.00
2018-07-03T03:17:09.319Z,100.00
2018-07-03T03:18:36.804Z,100.00
2018-07-03T03:20:04.241Z,100.00
2018-07-03T03:21:35.856Z,100.00
2018-07-03T03:22:59.377Z,100.00
2018-07-03T03:24:26.769Z,100.00
2018-07-03T03:25:54.042Z,100.00
2018-07-03T03:27:21.638Z,100.00
2018-07-03T03:28:49.089Z,100.00
2018-07-03T03:30:16.487Z,100.00
2018-07-03T03:31:47.890Z,100.00
2018-07-03T03:33:11.403Z,100.00
2018-07-03T03:34:42.778Z,100.00
2018-07-03T03:36:06.244Z,100.00
2018-07-03T03:37:33.455Z,100.00
2018-07-03T03:39:00.757Z,100.00
2018-07-03T03:40:28.284Z,100.00
2018-07-03T03:41:59.773Z,100.00
2018-07-03T03:43:23.315Z,100.00
2018-07-03T03:44:50.471Z,100.00
2018-07-03T03:46:17.781Z,100.00
2018-07-03T03:47:45.335Z,100.00
2018-07-03T03:49:16.743Z,100.00
2018-07-03T03:50:44.188Z,100.00
2018-07-03T03:52:07.542Z,100.00
2018-07-03T03:53:38.750Z,100.00
2018-07-03T03:55:06.218Z,100.00
2018-07-03T03:56:29.530Z,100.00
2018-07-03T03:57:56.758Z,100.00
2018-07-03T03:59:24.354Z,100.00
2018-07-03T04:00:51.699Z,100.00
2018-07-03T04:02:23.042Z,100.00
2018-07-03T04:03:46.361Z,100.00
2018-07-03T04:05:17.891Z,100.00
2018-07-03T04:06:41.152Z,100.00
2018-07-03T04:08:12.817Z,100.00
2018-07-03T04:09:36.384Z,100.00
2018-07-03T04:11:07.836Z,100.00
2018-07-03T04:12:35.320Z,100.00
2018-07-03T04:14:02.855Z,100.00
2018-07-03T04:15:30.176Z,100.00
2018-07-03T04:16:53.579Z,100.00
2018-07-03T04:18:24.866Z,100.00
2018-07-03T04:19:48.413Z,100.00
2018-07-03T04:21:19.789Z,100.00
2018-07-03T04:22:43.290Z,100.00
2018-07-03T04:24:10.497Z,100.00
2018-07-03T04:25:37.863Z,100.00
2018-07-03T04:27:09.349Z,100.00
2018-07-03T04:28:32.825Z,100.00
2018-07-03T04:30:00.090Z,100.00
2018-07-03T04:31:31.611Z,100.00
2018-07-03T04:32:59.211Z,100.00
2018-07-03T04:34:26.615Z,100.00
2018-07-03T04:35:54.118Z,100.00
2018-07-03T04:37:21.330Z,100.00
2018-07-03T04:38:44.757Z,100.00
2018-07-03T04:40:16.253Z,100.00
2018-07-03T04:41:40.363Z,100.00
2018-07-03T04:43:06.849Z,100.00
2018-07-03T04:44:34.218Z,100.00
2018-07-03T04:46:01.816Z,100.00
2018-07-03T04:47:29.224Z,100.00
2018-07-03T04:48:56.533Z,100.00
2018-07-03T04:50:23.700Z,100.00
2018-07-03T04:51:51.244Z,100.00
2018-07-03T04:53:18.703Z,100.00
2018-07-03T04:54:45.997Z,100.00
2018-07-03T04:56:13.351Z,100.00
2018-07-03T04:57:40.579Z,100.00
2018-07-03T04:59:07.915Z,100.00
2018-07-03T05:00:39.348Z,100.00
2018-07-03T05:02:06.690Z,100.00
2018-07-03T05:03:33.926Z,100.00
2018-07-03T05:05:01.150Z,100.00
2018-07-03T05:06:24.394Z,100.00
2018-07-03T05:07:55.746Z,100.00
2018-07-03T05:09:19.197Z,100.00
2018-07-03T05:10:46.445Z,100.00
2018-07-03T05:12:17.869Z,100.00
2018-07-03T05:13:45.232Z,100.00
2018-07-03T05:15:12.351Z,100.00
2018-07-03T05:16:35.718Z,100.00
2018-07-03T05:18:07.261Z,100.00
2018-07-03T05:19:34.391Z,100.00
2018-07-03T05:20:57.921Z,100.00
2018-07-03T05:22:29.321Z,100.00
2018-07-03T05:23:52.738Z,100.00
2018-07-03T05:25:24.047Z,100.00
2018-07-03T05:26:47.427Z,100.00
2018-07-03T05:28:18.656Z,100.00
2018-07-03T05:29:46.117Z,100.00
2018-07-03T05:31:09.386Z,100.00
2018-07-03T05:32:36.790Z,100.00
2018-07-03T05:34:04.589Z,100.00
2018-07-03T05:35:35.789Z,100.00
2018-07-03T05:36:59.302Z,100.00
2018-07-03T05:38:30.490Z,100.00
2018-07-03T05:39:57.814Z,100.00
2018-07-03T05:41:25.270Z,100.00
2018-07-03T05:42:52.800Z,100.00
2018-07-03T05:44:20.604Z,100.00
2018-07-03T05:45:44.228Z,100.00
2018-07-03T05:47:11.725Z,100.00
2018-07-03T05:48:39.239Z,100.00
2018-07-03T05:50:06.857Z,100.00
2018-07-03T05:51:38.581Z,100.00
2018-07-03T05:53:02.063Z,100.00
2018-07-03T05:54:33.755Z,100.00
2018-07-03T05:56:01.451Z,100.00
2018-07-03T05:57:29.081Z,100.00
2018-07-03T05:58:56.683Z,100.00
2018-07-03T06:00:24.359Z,100.00
2018-07-03T06:01:47.966Z,100.00
2018-07-03T06:03:15.699Z,100.00
2018-07-03T06:04:43.276Z,100.00
2018-07-03T06:06:10.647Z,100.00
2018-07-03T06:07:38.361Z,100.00
2018-07-03T06:09:06.030Z,100.00
2018-07-03T06:10:37.408Z,100.00
2018-07-03T06:12:04.814Z,100.00
2018-07-03T06:13:28.199Z,100.00
2018-07-03T06:14:55.721Z,100.00
2018-07-03T06:16:23.205Z,100.00
2018-07-03T06:17:50.752Z,100.00
2018-07-03T06:19:18.088Z,100.00
2018-07-03T06:20:49.484Z,100.00
2018-07-03T06:22:13.120Z,100.00
2018-07-03T06:23:44.702Z,100.00
2018-07-03T06:25:08.369Z,100.00
2018-07-03T06:26:39.982Z,100.00
2018-07-03T06:28:03.585Z,100.00
2018-07-03T06:29:35.065Z,100.00
2018-07-03T06:31:02.673Z,100.00
2018-07-03T06:32:26.416Z,100.00
2018-07-03T06:33:53.959Z,100.00
2018-07-03T06:35:21.282Z,100.00
2018-07-03T06:36:49.169Z,99.49
2018-07-03T06:38:20.835Z,99.38
2018-07-03T06:39:44.607Z,98.44
2018-07-03T06:41:12.310Z,97.60
2018-07-03T06:42:39.929Z,92.67
2018-07-03T06:44:07.423Z,89.29
2018-07-03T06:45:39.218Z,90.46
2018-07-03T06:47:02.844Z,88.08
2018-07-03T06:48:30.596Z,80.75
2018-07-03T06:50:02.232Z,71.96
2018-07-03T06:51:25.966Z,66.48
2018-07-03T06:52:53.664Z,61.95
2018-07-03T06:54:25.544Z,55.85
2018-07-03T06:55:53.214Z,54.58
2018-07-03T06:57:17.057Z,54.89
2018-07-03T06:58:44.726Z,52.74
2018-07-03T07:00:16.443Z,50.46
2018-07-03T07:01:39.800Z,52.72
2018-07-03T07:03:07.561Z,53.77
2018-07-03T07:04:35.099Z,55.77
2018-07-03T07:06:02.773Z,57.19
2018-07-03T07:07:30.371Z,58.05
2018-07-03T07:08:58.172Z,59.84
2018-07-03T07:10:25.932Z,64.70
2018-07-03T07:11:53.461Z,63.72
2018-07-03T07:13:21.055Z,65.70
2018-07-03T07:14:52.780Z,69.39
2018-07-03T07:16:16.453Z,73.21
2018-07-03T07:17:43.810Z,74.01
2018-07-03T07:19:15.467Z,75.97
2018-07-03T07:20:39.187Z,68.67
2018-07-03T07:22:06.741Z,71.84
2018-07-03T07:23:34.394Z,69.01
2018-07-03T07:25:05.961Z,74.65
2018-07-03T07:26:29.413Z,73.18
2018-07-03T07:27:57.243Z,71.49
2018-07-03T07:29:24.928Z,71.96
2018-07-03T07:30:56.363Z,70.29
2018-07-03T07:32:19.923Z,70.77
2018-07-03T07:33:51.235Z,71.77
2018-07-03T07:35:18.871Z,70.25
2018-07-03T07:36:42.500Z,70.59
2018-07-03T07:38:14.097Z,72.03
2018-07-03T07:39:41.662Z,71.18
2018-07-03T07:41:09.210Z,69.08
2018-07-03T07:42:32.837Z,68.01
2018-07-03T07:44:00.440Z,67.56
2018-07-03T07:45:28.042Z,75.10
2018-07-03T07:46:59.556Z,75.46
2018-07-03T07:48:23.319Z,77.21
2018-07-03T07:49:54.745Z,77.68
2018-07-03T07:51:18.431Z,75.06
2018-07-03T07:52:46.069Z,75.54
2018-07-03T07:54:17.432Z,77.82
2018-07-03T07:55:40.943Z,75.31
2018-07-03T07:57:08.490Z,76.36
2018-07-03T07:58:36.208Z,78.38
2018-07-03T08:00:07.749Z,77.27
2018-07-03T08:01:31.283Z,78.40
2018-07-03T08:02:58.943Z,79.08
2018-07-03T08:04:26.530Z,71.46
2018-07-03T08:05:54.086Z,73.48
2018-07-03T08:07:21.672Z,73.71
2018-07-03T08:08:49.334Z,72.63
2018-07-03T08:10:21.016Z,72.76
2018-07-03T08:11:44.422Z,69.34
2018-07-03T08:13:11.996Z,70.54
2018-07-03T08:14:39.401Z,71.86
2018-07-03T08:16:07.059Z,66.23
2018-07-03T08:17:34.763Z,68.09
2018-07-03T08:19:06.419Z,72.04
2018-07-03T08:20:33.974Z,71.34
2018-07-03T08:22:01.649Z,70.22
2018-07-03T08:23:25.383Z,75.73
2018-07-03T08:24:52.905Z,76.06
2018-07-03T08:26:24.497Z,72.97
2018-07-03T08:27:48.190Z,70.86
2018-07-03T08:29:15.568Z,70.74
2018-07-03T08:30:43.023Z,71.30
2018-07-03T08:32:10.711Z,69.46
2018-07-03T08:33:42.228Z,67.00
2018-07-03T08:35:05.875Z,64.25
2018-07-03T08:36:33.168Z,63.64
2018-07-03T08:38:00.840Z,63.09
2018-07-03T08:39:32.610Z,63.22
2018-07-03T08:40:55.907Z,64.63
2018-07-03T08:42:23.289Z,64.83
2018-07-03T08:43:51.098Z,63.96
2018-07-03T08:45:18.458Z,63.59
2018-07-03T08:46:45.965Z,66.52
2018-07-03T08:48:13.651Z,65.33
2018-07-03T08:49:45.088Z,65.29
2018-07-03T08:51:08.956Z,66.74
2018-07-03T08:52:36.339Z,63.47
2018-07-03T08:54:03.999Z,59.86
2018-07-03T08:55:31.610Z,56.58
2018-07-03T08:56:59.139Z,57.39
2018-07-03T08:58:26.530Z,56.32
2018-07-03T08:59:54.085Z,54.14
2018-07-03T09:01:21.840Z,54.69
2018-07-03T09:02:53.470Z,53.76
2018-07-03T09:04:20.746Z,54.59
2018-07-03T09:05:44.540Z,53.39
2018-07-03T09:07:12.205Z,61.42
2018-07-03T09:08:43.662Z,54.81
2018-07-03T09:10:07.237Z,54.55
2018-07-03T09:11:34.904Z,60.48
2018-07-03T09:13:02.527Z,53.22
2018-07-03T09:14:30.404Z,56.35
2018-07-03T09:15:57.988Z,55.01
2018-07-03T09:17:25.428Z,53.54
2018-07-03T09:18:52.946Z,52.89
2018-07-03T09:20:20.661Z,57.74
2018-07-03T09:21:48.297Z,57.26
2018-07-03T09:23:15.920Z,55.43
2018-07-03T09:24:43.555Z,52.66
2018-07-03T09:26:10.977Z,53.28
2018-07-03T09:27:38.594Z,52.59
2018-07-03T09:29:10.154Z,51.38
2018-07-03T09:30:33.830Z,50.99
2018-07-03T09:32:01.561Z,51.33
2018-07-03T09:33:29.235Z,50.82
2018-07-03T09:34:56.843Z,52.02
2018-07-03T09:36:28.436Z,52.15
2018-07-03T09:37:51.971Z,48.84
2018-07-03T09:39:23.614Z,49.38
2018-07-03T09:40:47.099Z,50.05
2018-07-03T09:42:14.739Z,49.32
2018-07-03T09:43:46.380Z,50.27
2018-07-03T09:45:09.815Z,47.80
2018-07-03T09:46:41.291Z,47.40
2018-07-03T09:48:04.874Z,45.88
2018-07-03T09:49:36.575Z,47.66
2018-07-03T09:51:04.117Z,48.58
2018-07-03T09:52:27.736Z,48.83
2018-07-03T09:53:55.374Z,45.36
2018-07-03T09:55:22.983Z,48.29
2018-07-03T09:56:54.514Z,48.97
2018-07-03T09:58:18.037Z,47.70
2018-07-03T09:59:49.798Z,50.38
2018-07-03T10:01:17.348Z,48.88
2018-07-03T10:02:40.987Z,47.39
2018-07-03T10:04:12.510Z,46.84
2018-07-03T10:05:36.033Z,44.48
2018-07-03T10:07:03.560Z,48.91
2018-07-03T10:08:31.027Z,45.89
2018-07-03T10:09:58.629Z,47.13
2018-07-03T10:11:26.339Z,46.98
2018-07-03T10:12:58.021Z,46.11
2018-07-03T10:14:25.738Z,46.47
2018-07-03T10:15:53.330Z,43.43
2018-07-03T10:17:16.803Z,43.88
2018-07-03T10:18:44.211Z,44.36
2018-07-03T10:20:11.842Z,43.37
2018-07-03T10:21:39.584Z,43.23
2018-07-03T10:23:07.230Z,44.35
2018-07-03T10:24:38.774Z,44.54
2018-07-03T10:26:02.095Z,45.72
2018-07-03T10:27:29.638Z,45.47
2018-07-03T10:29:01.265Z,46.52
2018-07-03T10:30:25.057Z,45.98
2018-07-03T10:31:52.735Z,48.55
2018-07-03T10:33:24.416Z,47.58
2018-07-03T10:34:51.868Z,45.67
2018-07-03T10:36:15.513Z,46.12
2018-07-03T10:37:43.141Z,43.53
2018-07-03T10:39:10.569Z,44.20
2018-07-03T10:40:42.281Z,43.22
2018-07-03T10:42:06.021Z,43.73
2018-07-03T10:43:33.441Z,50.08
2018-07-03T10:45:00.869Z,53.08
2018-07-03T10:46:28.502Z,54.93
2018-07-03T10:47:55.893Z,52.76
2018-07-03T10:49:23.698Z,55.44
2018-07-03T10:50:51.357Z,54.91
2018-07-03T10:52:19.007Z,54.09
2018-07-03T10:53:46.624Z,56.17
2018-07-03T10:55:14.177Z,56.73
2018-07-03T10:56:41.842Z,56.54
2018-07-03T10:58:09.566Z,56.32
2018-07-03T10:59:37.285Z,56.46
2018-07-03T11:01:04.770Z,56.10
2018-07-03T11:02:36.417Z,55.55
2018-07-03T11:04:03.999Z,56.31
2018-07-03T11:05:27.645Z,56.35
2018-07-03T11:06:55.364Z,56.60
2018-07-03T11:08:26.922Z,55.83
2018-07-03T11:09:50.713Z,48.15
2018-07-03T11:11:22.276Z,48.00
2018-07-03T11:12:45.985Z,50.16
2018-07-03T11:14:13.622Z,50.33
2018-07-03T11:15:41.116Z,51.72
2018-07-03T11:17:08.734Z,50.24
2018-07-03T11:18:36.218Z,50.42
2018-07-03T11:20:07.982Z,54.05
2018-07-03T11:21:31.653Z,49.27
2018-07-03T11:23:03.210Z,47.03
2018-07-03T11:24:26.904Z,47.68
2018-07-03T11:25:54.428Z,49.25
2018-07-03T11:27:22.208Z,49.48
2018-07-03T11:28:53.858Z,51.30
2018-07-03T11:30:17.345Z,48.80
2018-07-03T11:31:44.918Z,50.98
2018-07-03T11:33:12.527Z,50.12
2018-07-03T11:34:44.025Z,50.10
2018-07-03T11:36:07.715Z,51.83
2018-07-03T11:37:35.344Z,50.38
2018-07-03T11:39:03.187Z,47.75
2018-07-03T11:40:30.789Z,47.37
2018-07-03T11:41:58.177Z,46.36
2018-07-03T11:43:29.861Z,44.13
2018-07-03T11:44:53.655Z,44.68
2018-07-03T11:46:21.245Z,43.35
2018-07-03T11:47:48.542Z,42.21
2018-07-03T11:49:16.335Z,41.81
2018-07-03T11:50:47.959Z,42.13
2018-07-03T11:52:11.355Z,41.65
2018-07-03T11:53:39.009Z,41.94
2018-07-03T11:55:10.566Z,40.61
2018-07-03T11:56:34.224Z,40.04
2018-07-03T11:58:05.744Z,39.81
2018-07-03T11:59:29.503Z,40.25
2018-07-03T12:00:57.266Z,40.32
2018-07-03T12:02:24.937Z,41.24
2018-07-03T12:03:52.460Z,40.16
2018-07-03T12:05:20.075Z,38.92
2018-07-03T12:06:51.817Z,40.43
2018-07-03T12:08:19.314Z,40.60
2018-07-03T12:09:42.995Z,39.59
2018-07-03T12:11:10.726Z,38.30
2018-07-03T12:12:38.136Z,38.73
2018-07-03T12:14:05.928Z,39.68
2018-07-03T12:15:33.530Z,38.87
2018-07-03T12:17:01.275Z,38.83
2018-07-03T12:18:32.946Z,38.73
2018-07-03T12:19:56.715Z,39.58
2018-07-03T12:21:24.420Z,39.60
2018-07-03T12:22:52.119Z,40.41
2018-07-03T12:24:19.878Z,40.89
2018-07-03T12:25:51.558Z,40.66
2018-07-03T12:27:15.179Z,40.68
2018-07-03T12:28:46.692Z,40.05
2018-07-03T12:30:10.245Z,39.86
2018-07-03T12:31:41.923Z,39.30
2018-07-03T12:33:05.740Z,39.28
2018-07-03T12:34:33.337Z,38.99
2018-07-03T12:36:00.860Z,38.77
2018-07-03T12:37:28.329Z,38.33
2018-07-03T12:38:55.967Z,38.34
2018-07-03T12:40:23.656Z,39.55
2018-07-03T12:41:51.347Z,40.51
2018-07-03T12:43:19.111Z,42.29
2018-07-03T12:44:46.873Z,42.37
2018-07-03T12:46:14.433Z,43.84
2018-07-03T12:47:41.944Z,44.24
2018-07-03T12:49:09.487Z,43.38
2018-07-03T12:50:37.246Z,45.24
2018-07-03T12:52:08.830Z,45.03
2018-07-03T12:53:32.388Z,42.54
2018-07-03T12:55:00.134Z,42.22
2018-07-03T12:56:27.549Z,41.54
2018-07-03T12:57:55.249Z,42.87
2018-07-03T12:59:22.998Z,42.54
2018-07-03T13:00:50.758Z,42.97
2018-07-03T13:02:22.552Z,43.77
2018-07-03T13:03:46.014Z,45.41
2018-07-03T13:05:13.545Z,43.33
2018-07-03T13:06:41.128Z,42.28
2018-07-03T13:08:08.998Z,44.39
2018-07-03T13:09:36.662Z,43.54
2018-07-03T13:11:04.250Z,45.00
2018-07-03T13:12:31.951Z,44.43
2018-07-03T13:14:03.686Z,44.81
2018-07-03T13:15:31.282Z,45.16
2018-07-03T13:16:59.042Z,45.77
2018-07-03T13:18:22.674Z,45.94
2018-07-03T13:19:50.430Z,45.85
2018-07-03T13:21:18.187Z,46.23
2018-07-03T13:22:45.552Z,44.66
2018-07-03T13:24:13.132Z,45.12
2018-07-03T13:25:40.846Z,45.85
2018-07-03T13:27:08.543Z,45.31
2018-07-03T13:28:36.213Z,45.34
2018-07-03T13:30:03.943Z,46.63
2018-07-03T13:31:35.579Z,45.28
2018-07-03T13:33:03.177Z,47.72
2018-07-03T13:34:26.813Z,45.29
2018-07-03T13:35:54.412Z,44.47
2018-07-03T13:37:22.047Z,44.53
2018-07-03T13:38:49.607Z,44.85
2018-07-03T13:40:17.282Z,45.09
2018-07-03T13:41:45.030Z,46.78
2018-07-03T13:43:12.535Z,45.17
2018-07-03T13:44:40.205Z,45.36
2018-07-03T13:46:11.581Z,44.12
2018-07-03T13:47:39.259Z,45.77
2018-07-03T13:49:02.667Z,44.91
2018-07-03T13:50:30.346Z,46.23
2018-07-03T13:51:58.103Z,46.03
2018-07-03T13:53:29.743Z,45.27
2018-07-03T13:54:53.363Z,45.14
2018-07-03T13:56:20.900Z,46.33
2018-07-03T13:57:52.744Z,45.18
2018-07-03T13:59:16.218Z,44.88
2018-07-03T14:00:43.871Z,44.22
2018-07-03T14:02:11.587Z,47.04
2018-07-03T14:03:39.281Z,46.05
2018-07-03T14:05:06.778Z,46.59
2018-07-03T14:06:38.321Z,45.44
2018-07-03T14:08:02.096Z,45.34
2018-07-03T14:09:29.906Z,46.93
2018-07-03T14:10:57.522Z,45.92
2018-07-03T14:12:29.169Z,46.02
2018-07-03T14:13:52.822Z,46.74
2018-07-03T14:15:20.624Z,46.98
2018-07-03T14:16:48.173Z,48.05
2018-07-03T14:18:15.706Z,46.94
2018-07-03T14:19:43.363Z,47.13
2018-07-03T14:21:10.826Z,46.70
2018-07-03T14:22:38.454Z,45.36
2018-07-03T14:24:09.917Z,45.18
2018-07-03T14:25:33.596Z,46.58
2018-07-03T14:27:05.429Z,47.11
2018-07-03T14:28:32.921Z,48.18
2018-07-03T14:29:56.504Z,46.55
2018-07-03T14:31:27.766Z,46.70
2018-07-03T14:32:51.729Z,45.98
2018-07-03T14:34:19.232Z,45.94
2018-07-03T14:35:46.944Z,46.55
2018-07-03T14:37:18.467Z,47.33
2018-07-03T14:38:45.989Z,46.74
2018-07-03T14:40:13.512Z,49.16
2018-07-03T14:41:41.107Z,48.49
2018-07-03T14:43:04.690Z,47.95
2018-07-03T14:44:32.319Z,47.99
2018-07-03T14:45:59.822Z,47.74
2018-07-03T14:47:27.490Z,47.92
2018-07-03T14:48:54.954Z,48.82
2018-07-03T14:50:22.583Z,49.79
2018-07-03T14:51:50.353Z,51.37
2018-07-03T14:53:17.893Z,52.06
2018-07-03T14:54:45.545Z,52.97
2018-07-03T14:56:13.196Z,54.72
2018-07-03T14:57:40.717Z,53.86
2018-07-03T14:59:08.510Z,52.33
2018-07-03T15:00:40.107Z,52.47
2018-07-03T15:02:07.728Z,54.40
2018-07-03T15:03:31.120Z,54.50
2018-07-03T15:04:58.830Z,53.10
2018-07-03T15:06:26.421Z,53.34
2018-07-03T15:07:54.089Z,53.37
2018-07-03T15:09:25.505Z,54.92
2018-07-03T15:10:49.180Z,55.15
2018-07-03T15:12:16.664Z,55.28
2018-07-03T15:13:44.231Z,54.34
2018-07-03T15:15:11.846Z,55.70
2018-07-03T15:16:39.251Z,54.73
2018-07-03T15:18:06.971Z,54.56
2018-07-03T15:19:38.534Z,57.09
2018-07-03T15:21:02.278Z,58.28
2018-07-03T15:22:29.778Z,57.29
2018-07-03T15:23:57.286Z,58.35
2018-07-03T15:25:24.888Z,61.13
2018-07-03T15:26:52.370Z,59.25
2018-07-03T15:28:19.986Z,63.39
2018-07-03T15:29:51.635Z,60.40
2018-07-03T15:31:19.173Z,60.26
2018-07-03T15:32:46.746Z,59.48
2018-07-03T15:34:10.300Z,60.88
2018-07-03T15:35:41.913Z,60.36
2018-07-03T15:37:05.442Z,61.05
2018-07-03T15:38:32.853Z,59.14
2018-07-03T15:40:00.349Z,60.49
2018-07-03T15:41:27.954Z,60.82
2018-07-03T15:42:55.600Z,65.26
2018-07-03T15:44:23.265Z,66.62
2018-07-03T15:45:54.888Z,65.27
2018-07-03T15:47:18.498Z,65.18
2018-07-03T15:48:45.986Z,67.59
2018-07-03T15:50:17.708Z,63.56
2018-07-03T15:51:41.160Z,63.41
2018-07-03T15:53:12.635Z,63.14
2018-07-03T15:54:36.209Z,63.17
2018-07-03T15:56:03.788Z,69.54
2018-07-03T15:57:35.243Z,67.38
2018-07-03T15:58:58.719Z,68.39
2018-07-03T16:00:30.521Z,69.27
2018-07-03T16:01:53.940Z,67.33
2018-07-03T16:03:21.643Z,69.16
2018-07-03T16:04:53.225Z,71.48
2018-07-03T16:06:16.829Z,70.76
2018-07-03T16:07:44.317Z,75.99
2018-07-03T16:09:15.638Z,71.82
2018-07-03T16:10:39.268Z,72.40
2018-07-03T16:12:06.712Z,72.14
2018-07-03T16:13:38.377Z,72.32
2018-07-03T16:15:06.074Z,74.60
2018-07-03T16:16:33.681Z,75.72
2018-07-03T16:17:57.314Z,73.41
2018-07-03T16:19:25.016Z,71.63
2018-07-03T16:20:56.551Z,68.43
2018-07-03T16:22:20.098Z,67.75
2018-07-03T16:23:47.744Z,67.85
2018-07-03T16:25:15.374Z,67.58
2018-07-03T16:26:42.852Z,68.29
2018-07-03T16:28:10.252Z,70.41
2018-07-03T16:29:41.809Z,69.64
2018-07-03T16:31:05.410Z,68.90
2018-07-03T16:32:33.106Z,66.70
2018-07-03T16:34:00.648Z,67.91
2018-07-03T16:35:28.378Z,68.01
2018-07-03T16:36:56.148Z,68.12
2018-07-03T16:38:23.577Z,65.60
2018-07-03T16:39:51.149Z,64.35
2018-07-03T16:41:18.777Z,62.91
2018-07-03T16:42:46.319Z,64.39
2018-07-03T16:44:13.735Z,63.65
2018-07-03T16:45:41.216Z,63.02
2018-07-03T16:47:08.769Z,65.69
2018-07-03T16:48:35.798Z,67.23
2018-07-03T16:50:03.316Z,67.71
2018-07-03T16:51:34.631Z,66.13
2018-07-03T16:53:02.278Z,64.74
2018-07-03T16:54:29.873Z,70.94
2018-07-03T16:55:53.441Z,71.93
2018-07-03T16:57:20.986Z,69.38
2018-07-03T16:58:52.686Z,70.13
2018-07-03T17:00:16.157Z,67.60
2018-07-03T17:01:47.644Z,66.03
2018-07-03T17:03:11.099Z,64.63
2018-07-03T17:04:38.769Z,65.36
2018-07-03T17:06:06.301Z,65.34
2018-07-03T17:07:33.941Z,65.38
2018-07-03T17:09:05.495Z,69.28
2018-07-03T17:10:29.021Z,69.34
2018-07-03T17:11:56.643Z,66.66
2018-07-03T17:13:28.268Z,69.23
2018-07-03T17:14:55.789Z,68.94
2018-07-03T17:16:23.386Z,65.84
2018-07-03T17:17:50.927Z,66.69
2018-07-03T17:19:14.478Z,69.76
2018-07-03T17:20:41.768Z,73.12
2018-07-03T17:22:13.433Z,72.03
2018-07-03T17:23:36.891Z,73.39
2018-07-03T17:25:08.377Z,69.65
2018-07-03T17:26:32.394Z,68.78
2018-07-03T17:27:59.973Z,67.79
2018-07-03T17:29:27.438Z,69.22
2018-07-03T17:30:55.202Z,67.93
2018-07-03T17:32:22.575Z,69.16
2018-07-03T17:33:50.221Z,68.24
2018-07-03T17:35:17.854Z,66.63
2018-07-03T17:36:45.339Z,67.97
2018-07-03T17:38:16.890Z,68.95
2018-07-03T17:39:44.388Z,69.07
2018-07-03T17:41:08.093Z,65.85
2018-07-03T17:42:35.558Z,70.30
2018-07-03T17:44:07.102Z,67.97
2018-07-03T17:45:30.708Z,67.72
2018-07-03T17:47:02.285Z,69.31
2018-07-03T17:48:29.788Z,67.45
2018-07-03T17:49:57.445Z,67.42
2018-07-03T17:51:20.949Z,70.23
2018-07-03T17:52:48.415Z,69.58
2018-07-03T17:54:16.157Z,69.96
2018-07-03T17:55:43.649Z,71.06
2018-07-03T17:57:11.066Z,70.03
2018-07-03T17:58:42.450Z,68.45
2018-07-03T18:00:05.931Z,70.22
2018-07-03T18:01:33.727Z,71.02
2018-07-03T18:03:01.153Z,71.04
2018-07-03T18:04:32.789Z,70.95
2018-07-03T18:05:56.576Z,70.03
2018-07-03T18:07:24.163Z,70.17
2018-07-03T18:08:55.484Z,71.00
2018-07-03T18:10:23.118Z,72.03
2018-07-03T18:11:46.512Z,71.54
2018-07-03T18:13:18.146Z,70.63
2018-07-03T18:14:41.747Z,70.10
2018-07-03T18:16:13.383Z,69.72
2018-07-03T18:17:36.830Z,70.46
2018-07-03T18:19:08.772Z,72.00
2018-07-03T18:20:32.186Z,73.39
2018-07-03T18:21:59.748Z,71.69
2018-07-03T18:23:31.181Z,70.34
2018-07-03T18:24:54.510Z,71.02
2018-07-03T18:26:22.152Z,71.58
2018-07-03T18:27:49.808Z,71.25
2018-07-03T18:29:17.446Z,73.25
2018-07-03T18:30:45.044Z,74.65
2018-07-03T18:32:16.428Z,72.41
2018-07-03T18:33:43.997Z,73.73